Saturday, February 17, 2018, 9:25 PM CST
Back to Local

KMDW, Chicago Midway Airport

Location: Chicago, IL, United States Lat: 41.783
Local Time: 9:25 PM CST ( 3:25 GMT) Lon: -87.75
Time Zone: US/Central Elev: 620 ft

Show me the last for .
Show Decoded

2018-02-17 20:53 METAR KMDW 180253Z 28009KT 9SM OVC015 M01/M03 A3009 RMK AO2 SLP203 60000
                 T10061033 51041 =
2018-02-17 20:08 METAR KMDW 180208Z 29015KT 8SM BKN017 M01/M03 A3006 RMK AO2 T10061033 =
2018-02-17 19:53 METAR KMDW 180153Z 29015G22KT 8SM SCT017 00/M03 A3005 RMK AO2 SLP191 T00001028 =
2018-02-17 18:53 METAR KMDW 180053Z 27010KT 7SM SCT016 BKN022 OVC030 01/M01 A3002 RMK AO2 SNE52
                 SLP178 P0000 T00061011 =
2018-02-17 18:19 METAR KMDW 180019Z 25012KT 6SM -SN BR FEW008 BKN014 OVC040 01/M01 A2999 RMK AO2
                 P0000 T00061006 =
2018-02-17 17:53 METAR KMDW 172353Z 24009KT 4SM -SN BR FEW008 SCT014 OVC018 01/M01 A2996 RMK AO2
                 SLP161 4/002 P0001 60009 T00061006 10022 20006 53013 =
2018-02-17 17:25 METAR KMDW 172325Z 22008KT 2SM -SN BR BKN008 BKN014 OVC020 01/00 A2995 RMK AO2
                 P0001 T00060000 =
2018-02-17 16:53 METAR KMDW 172253Z 20006KT 1SM R31C/5500VP6000FT -SN BR BKN006 OVC012 01/00
                 A2995 RMK AO2 SLP156 SNINCR 1/2 P0005 T00060000 =
2018-02-17 16:36 METAR KMDW 172236Z 20006KT 3/4SM R31C/3000V4000FT -SN BR VV006 01/00 A2994 RMK
                 AO2 P0005 T00060000 =
2018-02-17 15:53 METAR KMDW 172153Z 21006KT 1/2SM R31C/3000V3500FT SN FG VV007 01/00 A2993 RMK
                 AO2 SLP151 SNINCR 1/1 P0003 T00060000 =
2018-02-17 15:34 METAR KMDW 172134Z 20008KT 1/2SM R31C/3000V3500FT SN FG VV009 01/M01 A2993 RMK
                 AO2 P0001 T00061006 =
2018-02-17 15:26 METAR KMDW 172126Z 21008KT 1/2SM R31C/3000V4500FT SN FG VV015 01/M01 A2994 RMK
                 AO2 P0000 T00061011 =
2018-02-17 15:19 METAR KMDW 172119Z 21009KT 1/2SM R31C/3500V6000FT SN FG BKN010 OVC019 01/M02
                 A2994 RMK AO2 P0000 T00061017 =
2018-02-17 15:15 METAR KMDW 172115Z 21012KT 3/4SM R31C/P6000FT -SN BR OVC021 01/M02 A2993 RMK AO2
                 P0000 T00111017 =
2018-02-17 15:11 METAR KMDW 172111Z 20011G20KT 2SM -SN BR SCT021 BKN028 OVC034 01/M02 A2993 RMK
                 AO2 P0000 T00111017 =
2018-02-17 14:53 METAR KMDW 172053Z 20013G22KT 9SM -SN BKN021 OVC065 02/M02 A2993 RMK AO2 SNB53
                 SLP148 P0000 60000 T00171022 56028 =
2018-02-17 14:44 METAR KMDW 172044Z 20015G22KT 10SM BKN021 OVC065 02/M02 A2993 RMK AO2 T00171022
                 =
2018-02-17 13:53 METAR KMDW 171953Z 19010KT 10SM FEW050 BKN070 OVC250 02/M03 A2994 RMK AO2 SLP152
                 T00171028 =
2018-02-17 12:53 METAR KMDW 171853Z 21010KT 10SM BKN095 OVC250 02/M03 A2997 RMK AO2 SLP164
                 T00171033 =
2018-02-17 11:53 METAR KMDW 171753Z COR 21010KT 10SM BKN095 OVC250 01/M04 A3001 RMK AO2 SLP176
                 T00111039 10011 21078 58029 =
2018-02-17 10:53 METAR KMDW 171653Z 20008KT 10SM BKN100 OVC250 M01/M04 A3005 RMK AO2 SLP191
                 T10061044 =
2018-02-17 09:53 METAR KMDW 171553Z 17006KT 10SM BKN140 OVC250 M03/M07 A3007 RMK AO2 SLP197
                 T10331072 =
2018-02-17 08:53 METAR KMDW 171453Z 20007KT 10SM BKN180 OVC250 M05/M09 A3010 RMK AO2 SLP207
                 T10501089 56020 =
2018-02-17 07:53 METAR KMDW 171353Z 17005KT 10SM OVC180 M06/M12 A3010 RMK AO2 SLP208 T10611117 =
2018-02-17 06:53 METAR KMDW 171253Z 19008KT 160V240 10SM OVC200 M07/M13 A3013 RMK AO2 SLP217
                 T10671128 =
2018-02-17 05:53 METAR KMDW 171153Z 18005KT 10SM OVC220 M08/M13 A3016 RMK AO2 SLP227 T10781128
                 11067 21083 56015 =
2018-02-17 04:53 METAR KMDW 171053Z 20004KT 10SM BKN250 M08/M12 A3016 RMK AO2 SLP230 T10831122 =
2018-02-17 03:53 METAR KMDW 170953Z 19003KT 10SM SCT250 M08/M12 A3017 RMK AO2 SLP232 T10831117 =
2018-02-17 02:53 METAR KMDW 170853Z 20003KT 10SM SCT250 M08/M12 A3020 RMK AO2 SLP241 T10831122
                 58019 =
2018-02-17 01:53 METAR KMDW 170753Z 27004KT 10SM SCT250 M08/M12 A3024 RMK AO2 SLP255 T10781117 =
2018-02-17 00:53 METAR KMDW 170653Z 25005KT 10SM SCT250 M07/M12 A3025 RMK AO2 SLP258 T10721117 =
2018-02-16 23:53 METAR KMDW 170553Z 25004KT 10SM SCT250 M07/M12 A3026 RMK AO2 SLP259 4/001
                 T10671117 11011 21067 400331067 58002 =
2018-02-16 22:53 METAR KMDW 170453Z 22005KT 10SM BKN250 M06/M11 A3025 RMK AO2 SLP258 T10561111 =
2018-02-16 21:53 METAR KMDW 170353Z 26007KT 10SM BKN250 M05/M13 A3027 RMK AO2 SLP264 T10501133 =

Support USWX by starting your Amazon purchase here.